createdAt,value
2019-06-08T00:04:29.102Z,16.16
2019-06-08T00:09:32.565Z,16.09
2019-06-08T00:14:35.977Z,16.17
2019-06-08T00:19:39.391Z,16.09
2019-06-08T00:24:42.878Z,15.99
2019-06-08T00:29:46.353Z,15.95
2019-06-08T00:34:49.841Z,15.92
2019-06-08T00:39:53.259Z,15.96
2019-06-08T00:44:56.688Z,15.93
2019-06-08T00:50:00.093Z,15.81
2019-06-08T00:55:04.346Z,15.87
2019-06-08T01:00:10.600Z,15.82
2019-06-08T01:05:13.762Z,15.79
2019-06-08T01:10:19.134Z,15.71
2019-06-08T01:15:29.344Z,15.65
2019-06-08T01:20:27.938Z,15.65
2019-06-08T01:25:31.376Z,15.53
2019-06-08T01:30:34.873Z,15.61
2019-06-08T01:35:38.305Z,15.57
2019-06-08T01:40:41.730Z,15.50
2019-06-08T01:45:45.156Z,15.41
2019-06-08T01:50:48.643Z,15.26
2019-06-08T01:55:52.751Z,15.32
2019-06-08T02:00:56.123Z,15.21
2019-06-08T02:05:59.558Z,15.13
2019-06-08T02:11:03.190Z,15.05
2019-06-08T02:16:06.609Z,14.98
2019-06-08T02:21:10.014Z,14.95
2019-06-08T02:26:13.458Z,14.95
2019-06-08T02:31:16.869Z,14.83
2019-06-08T02:36:20.313Z,14.77
2019-06-08T02:41:23.741Z,14.73
2019-06-08T02:46:28.846Z,14.74
2019-06-08T02:51:34.367Z,14.70
2019-06-08T02:56:41.397Z,14.62
2019-06-08T03:01:46.848Z,14.65
2019-06-08T03:06:52.639Z,14.59
2019-06-08T03:11:56.595Z,14.51
2019-06-08T03:17:00.151Z,14.62
2019-06-08T03:22:03.561Z,14.69
2019-06-08T03:27:07.072Z,14.67
2019-06-08T03:32:10.532Z,14.75
2019-06-08T03:37:13.923Z,14.84
2019-06-08T03:42:17.355Z,14.91
2019-06-08T03:47:20.807Z,14.89
2019-06-08T03:52:24.241Z,14.94
2019-06-08T03:57:27.665Z,14.96
2019-06-08T04:02:31.082Z,15.06
2019-06-08T04:07:34.790Z,15.06
2019-06-08T04:12:39.769Z,15.09
2019-06-08T04:17:44.137Z,15.12
2019-06-08T04:22:47.703Z,15.16
2019-06-08T04:27:51.236Z,15.17
2019-06-08T04:32:54.605Z,15.19
2019-06-08T04:37:58.049Z,15.13
2019-06-08T04:43:01.471Z,15.08
2019-06-08T04:48:09.375Z,15.05
2019-06-08T04:53:10.197Z,15.00
2019-06-08T04:58:13.630Z,15.03
2019-06-08T05:03:17.066Z,15.18
2019-06-08T05:08:20.489Z,15.31
2019-06-08T05:13:25.816Z,15.37
2019-06-08T05:18:29.262Z,15.47
2019-06-08T05:23:32.686Z,15.61
2019-06-08T05:28:36.124Z,15.61
2019-06-08T05:33:39.548Z,15.65
2019-06-08T05:38:43.462Z,15.66
2019-06-08T05:43:47.693Z,15.79
2019-06-08T05:48:51.094Z,15.87
2019-06-08T05:53:54.529Z,15.87
2019-06-08T05:58:58.026Z,15.80
2019-06-08T06:04:02.492Z,15.95
2019-06-08T06:09:07.984Z,15.82
2019-06-08T06:14:11.427Z,15.83
2019-06-08T06:19:14.831Z,15.80
2019-06-08T06:24:18.245Z,15.79
2019-06-08T06:29:21.691Z,15.83
2019-06-08T06:34:25.138Z,15.90
2019-06-08T06:39:28.569Z,15.96
2019-06-08T06:44:31.985Z,16.03
2019-06-08T06:49:35.412Z,16.10
2019-06-08T06:54:38.863Z,16.21
2019-06-08T06:59:43.335Z,16.38
2019-06-08T07:04:48.204Z,16.34
2019-06-08T07:09:52.751Z,16.53
2019-06-08T07:14:56.262Z,16.66
2019-06-08T07:19:59.681Z,16.79
2019-06-08T07:25:03.353Z,16.98
2019-06-08T07:30:07.578Z,16.94
2019-06-08T07:35:11.500Z,17.21
2019-06-08T07:40:15.093Z,17.44
2019-06-08T07:45:18.676Z,17.36
2019-06-08T07:50:22.086Z,17.13
2019-06-08T07:55:25.522Z,17.05
2019-06-08T08:00:29.538Z,16.75
2019-06-08T08:05:32.892Z,16.75
2019-06-08T08:10:36.338Z,16.99
2019-06-08T08:15:39.767Z,17.10
2019-06-08T08:20:43.718Z,17.36
2019-06-08T08:25:47.485Z,17.43
2019-06-08T08:30:52.208Z,17.50
2019-06-08T08:35:58.663Z,17.72
2019-06-08T08:41:07.181Z,18.01
2019-06-08T08:46:07.696Z,18.82
2019-06-08T08:51:11.291Z,18.48
2019-06-08T08:56:14.742Z,18.01
2019-06-08T09:01:20.550Z,18.06
2019-06-08T09:06:23.290Z,18.23
2019-06-08T09:11:28.949Z,18.00
2019-06-08T09:16:31.949Z,17.80
2019-06-08T09:21:35.376Z,17.80
2019-06-08T09:26:38.831Z,17.79
2019-06-08T09:31:42.302Z,17.76
2019-06-08T09:36:47.894Z,17.85
2019-06-08T09:41:53.707Z,17.94
2019-06-08T09:47:02.759Z,17.70
2019-06-08T09:52:03.510Z,17.81
2019-06-08T09:57:09.138Z,17.73
2019-06-08T10:02:13.085Z,17.75
2019-06-08T10:07:18.661Z,17.69
2019-06-08T10:12:22.607Z,17.88
2019-06-08T10:17:27.910Z,17.87
2019-06-08T10:22:31.155Z,17.78
2019-06-08T10:27:34.626Z,17.83
2019-06-08T10:32:38.330Z,18.08
2019-06-08T10:37:41.896Z,18.02
2019-06-08T10:42:48.153Z,17.94
2019-06-08T10:47:50.461Z,18.07
2019-06-08T10:52:53.875Z,18.16
2019-06-08T10:57:58.112Z,18.18
2019-06-08T11:03:03.362Z,18.13
2019-06-08T11:08:12.983Z,18.24
2019-06-08T11:13:14.993Z,18.29
2019-06-08T11:18:18.535Z,18.50
2019-06-08T11:23:22.089Z,18.52
2019-06-08T11:28:28.101Z,18.86
2019-06-08T11:33:30.637Z,19.11
2019-06-08T11:38:34.066Z,19.23
2019-06-08T11:43:38.146Z,19.07
2019-06-08T11:48:41.813Z,19.27
2019-06-08T11:53:48.214Z,19.17
2019-06-08T11:58:52.649Z,19.25
2019-06-08T12:03:57.954Z,18.98
2019-06-08T12:09:02.629Z,19.05
2019-06-08T12:14:09.238Z,19.81
2019-06-08T12:19:15.057Z,19.80
2019-06-08T12:24:16.676Z,19.95
2019-06-08T12:29:20.062Z,20.00
2019-06-08T12:34:23.565Z,19.75
2019-06-08T12:39:28.153Z,19.86
2019-06-08T12:44:31.695Z,19.82
2019-06-08T12:49:35.207Z,19.80
2019-06-08T12:54:38.643Z,19.92
2019-06-08T12:59:45.362Z,19.86
2019-06-08T13:04:48.098Z,19.99
2019-06-08T13:09:51.616Z,19.87
2019-06-08T13:14:58.068Z,19.82
2019-06-08T13:20:01.054Z,19.77
2019-06-08T13:25:19.121Z,20.07
2019-06-08T13:30:17.429Z,20.51
2019-06-08T13:35:20.834Z,20.94
2019-06-08T13:40:23.992Z,21.07
2019-06-08T13:45:27.916Z,21.55
2019-06-08T13:50:31.480Z,21.48
2019-06-08T13:55:48.612Z,21.48
2019-06-08T14:00:40.131Z,21.82
2019-06-08T14:05:43.548Z,21.85
2019-06-08T14:10:48.249Z,22.30
2019-06-08T14:15:51.838Z,22.30
2019-06-08T14:20:58.490Z,22.74
2019-06-08T14:26:01.115Z,23.68
2019-06-08T14:31:04.528Z,23.20
2019-06-08T14:36:08.104Z,23.24
2019-06-08T14:41:11.541Z,24.01
2019-06-08T14:46:14.959Z,24.28
2019-06-08T14:51:18.755Z,23.19
2019-06-08T14:56:22.852Z,22.82
2019-06-08T15:01:29.379Z,22.50
2019-06-08T15:06:34.169Z,22.80
2019-06-08T15:11:38.111Z,24.16
2019-06-08T15:16:41.951Z,24.26
2019-06-08T15:21:45.426Z,23.40
2019-06-08T15:26:49.046Z,23.78
2019-06-08T15:31:52.684Z,24.40
2019-06-08T15:36:57.555Z,23.56
2019-06-08T15:42:01.331Z,23.24
2019-06-08T15:47:04.743Z,22.99
2019-06-08T15:52:08.158Z,22.87
2019-06-08T15:57:11.576Z,22.96
2019-06-08T16:02:14.990Z,23.83
2019-06-08T16:07:18.443Z,23.53
2019-06-08T16:12:21.874Z,23.89
2019-06-08T16:17:25.425Z,24.12
2019-06-08T16:22:29.553Z,23.82
2019-06-08T16:27:33.897Z,23.64
2019-06-08T16:32:37.263Z,23.73
2019-06-08T16:37:40.689Z,23.34
2019-06-08T16:42:44.376Z,22.87
2019-06-08T16:53:08.769Z,20.53
2019-06-08T16:58:12.210Z,20.09
2019-06-08T17:03:15.652Z,20.24
2019-06-08T17:08:19.075Z,20.09
2019-06-08T17:13:23.771Z,20.57
2019-06-08T17:18:27.189Z,20.51
2019-06-08T17:23:32.325Z,20.82
2019-06-08T17:28:37.120Z,20.82
2019-06-08T17:33:41.502Z,20.65
2019-06-08T17:38:44.922Z,20.39
2019-06-08T17:43:48.354Z,20.02
2019-06-08T17:48:51.851Z,19.97
2019-06-08T17:53:55.288Z,19.42
2019-06-08T17:58:58.710Z,19.31
2019-06-08T18:04:02.146Z,19.15
2019-06-08T18:09:07.862Z,18.84
2019-06-08T18:14:11.380Z,18.72
2019-06-08T18:19:29.170Z,18.74
2019-06-08T18:24:32.587Z,18.88
2019-06-08T18:29:39.150Z,18.89
2019-06-08T18:34:42.150Z,18.77
2019-06-08T18:39:49.066Z,18.73
2019-06-08T18:44:51.468Z,18.33
2019-06-08T18:49:57.296Z,18.14
2019-06-08T18:55:00.044Z,18.18
2019-06-08T19:00:10.984Z,18.14
2019-06-08T19:05:10.269Z,18.00
2019-06-08T19:10:16.751Z,17.94
2019-06-08T19:15:23.261Z,17.50
2019-06-08T19:20:28.451Z,17.54
2019-06-08T19:25:31.978Z,17.42
2019-06-08T19:30:37.909Z,17.26
2019-06-08T19:35:41.128Z,17.09
2019-06-08T19:40:46.119Z,17.00
2019-06-08T19:45:51.925Z,16.81
2019-06-08T19:50:54.792Z,16.81
2019-06-08T19:55:58.230Z,16.68
2019-06-08T20:01:01.766Z,16.61
2019-06-08T20:06:06.176Z,16.53
2019-06-08T20:11:09.680Z,16.27
2019-06-08T20:16:13.106Z,16.10
2019-06-08T20:21:18.130Z,16.01
2019-06-08T20:26:21.656Z,15.91
2019-06-08T20:31:26.930Z,15.79
2019-06-08T20:36:30.389Z,15.83
2019-06-08T20:41:33.809Z,15.79
2019-06-08T20:46:37.792Z,15.82
2019-06-08T20:51:42.468Z,15.76
2019-06-08T20:56:47.897Z,15.66
2019-06-08T21:01:52.645Z,15.80
2019-06-08T21:06:57.344Z,15.77
2019-06-08T21:12:00.906Z,15.70
2019-06-08T21:17:04.348Z,15.66
2019-06-08T21:22:08.299Z,15.59
2019-06-08T21:27:11.800Z,15.51
2019-06-08T21:32:17.595Z,15.37
2019-06-08T21:37:20.341Z,15.30
2019-06-08T21:42:23.857Z,15.15
2019-06-08T21:47:27.278Z,15.05
2019-06-08T21:52:30.690Z,14.97
2019-06-08T21:57:36.972Z,14.95
2019-06-08T22:02:40.116Z,14.90
2019-06-08T22:07:43.599Z,14.79
2019-06-08T22:12:48.298Z,14.80
2019-06-08T22:17:53.120Z,14.77
2019-06-08T22:22:59.253Z,14.69
2019-06-08T22:28:01.788Z,14.68
2019-06-08T22:33:05.217Z,14.63
2019-06-08T22:38:08.745Z,14.58
2019-06-08T22:48:33.267Z,14.42
2019-06-08T22:53:38.339Z,14.40
2019-06-08T22:58:41.965Z,14.38
2019-06-08T23:03:47.445Z,14.24
2019-06-08T23:08:50.555Z,14.12
2019-06-08T23:13:54.983Z,14.04
2019-06-08T23:18:59.992Z,13.97
2019-06-08T23:24:04.128Z,13.88
2019-06-08T23:29:09.536Z,13.83
2019-06-08T23:34:12.654Z,13.78
2019-06-08T23:39:17.992Z,13.75
2019-06-08T23:44:21.203Z,13.68
2019-06-08T23:49:24.634Z,13.64
2019-06-08T23:54:28.150Z,13.52
2019-06-08T23:59:31.547Z,13.42
